Nearby METAR Reports

 

KBFI - Boeing Field Seattle, WA, USA
Distance from station: SE 4mi, 7km
Updated: Tue, 20-Feb-2024 4:53pm PST
Mostly cloudy
Mostly cloudy
 Wind from SSE
Wind: SSE 7 mph , 11 km/h
Temperature: 54°F , 12°C
Dew Point: 46°F , 8°C
Humidity: 77%
Barometer: 29.89 inHg , 1012.2 hPa
Clouds: Mostly cloudy
Visibility: 10 miles , 16 km
Cloud details: Few Clouds 6000 ft
Mostly cloudy 7500 ft
2024/02/21 00:53 KBFI 210053Z 15006KT 10SM FEW060 BKN075 12/08 A2989 RMK AO2 SLP120 T01220078
KSEA - Seattle/Metro, WA, USA
Distance from station: NE 5mi, 8km
Updated: Tue, 20-Feb-2024 4:53pm PST
Mostly cloudy
Mostly cloudy
 Wind from SE
Wind: SE 6 mph , 9 km/h
Temperature: 54°F , 12°C
Dew Point: 45°F , 7°C
Humidity: 72%
Barometer: 29.89 inHg , 1012.2 hPa
Clouds: Mostly cloudy
Visibility: 10 miles , 16 km
Cloud details: Few Clouds 4000 ft
Mostly cloudy 7000 ft
Mostly cloudy 12000 ft
2024/02/21 00:53 KSEA 210053Z 14005KT 10SM FEW040 BKN070 BKN120 12/07 A2989 RMK AO2 RAB42E51 SLP127 P0000 T01170072
 
KTIW - Tacoma, WA, USA
Distance from station: S 30mi, 45km
Updated: Tue, 20-Feb-2024 4:53pm PST
Overcast
Overcast
 Wind from E
Wind: E 5 mph , 7 km/h
Temperature: 52°F , 11°C
Dew Point: 48°F , 9°C
Humidity: 88%
Barometer: 29.89 inHg , 1012.2 hPa
Clouds: Overcast
Visibility: 10 miles , 16 km
Cloud details: Mostly cloudy 4400 ft
Overcast 6000 ft
2024/02/21 00:53 KTIW 210053Z 10004KT 10SM BKN044 OVC060 11/09 A2989 RMK AO2 RAB06E47 SLP122 P0000 T01060089
KCLM - Port Angeles, WA, USA
Distance from station: NW 70mi, 100km
Updated: Tue, 20-Feb-2024 4:53pm PST
Overcast
Overcast
 Wind from calm
Wind: Calm
Temperature: 48°F , 9°C
Dew Point: 41°F , 5°C
Humidity: 76%
Barometer: 29.89 inHg , 1012.2 hPa
Clouds: Overcast
Visibility: 10 miles , 16 km
Cloud details: Mostly cloudy 1000 ft
Overcast 6500 ft
2024/02/21 00:53 KCLM 210053Z AUTO 00000KT 10SM BKN010 OVC065 09/05 A2989 RMK AO2 SLP122 T00890050